sensor_id;sensor_type;location;lat;lon;timestamp;temperature;humidity
47354;DHT22;50657;48.830;2.282;2022-09-09T00:02:15;26.10;48.40
47354;DHT22;50657;48.830;2.282;2022-09-09T00:04:46;26.10;48.40
47354;DHT22;50657;48.830;2.282;2022-09-09T00:07:21;26.10;48.40
47354;DHT22;50657;48.830;2.282;2022-09-09T00:09:55;26.10;48.40
47354;DHT22;50657;48.830;2.282;2022-09-09T00:12:32;26.10;48.40
47354;DHT22;50657;48.830;2.282;2022-09-09T00:15:01;26.10;49.00
47354;DHT22;50657;48.830;2.282;2022-09-09T00:17:35;26.00;48.40
47354;DHT22;50657;48.830;2.282;2022-09-09T00:20:09;26.10;48.30
47354;DHT22;50657;48.830;2.282;2022-09-09T00:22:41;26.00;48.30
47354;DHT22;50657;48.830;2.282;2022-09-09T00:25:14;26.00;48.40
47354;DHT22;50657;48.830;2.282;2022-09-09T00:27:46;26.00;48.60
47354;DHT22;50657;48.830;2.282;2022-09-09T00:30:16;26.00;48.70
47354;DHT22;50657;48.830;2.282;2022-09-09T00:32:45;26.00;48.60
47354;DHT22;50657;48.830;2.282;2022-09-09T00:35:21;26.00;48.60
47354;DHT22;50657;48.830;2.282;2022-09-09T00:37:52;26.00;48.60
47354;DHT22;50657;48.830;2.282;2022-09-09T00:40:27;26.00;49.00
47354;DHT22;50657;48.830;2.282;2022-09-09T00:43:15;26.00;48.40
47354;DHT22;50657;48.830;2.282;2022-09-09T00:45:57;26.00;48.20
47354;DHT22;50657;48.830;2.282;2022-09-09T00:48:34;26.00;48.10
47354;DHT22;50657;48.830;2.282;2022-09-09T00:51:08;26.00;48.00
47354;DHT22;50657;48.830;2.282;2022-09-09T00:53:51;26.00;48.00
47354;DHT22;50657;48.830;2.282;2022-09-09T00:56:21;26.00;47.90
47354;DHT22;50657;48.830;2.282;2022-09-09T00:58:58;26.00;48.40
47354;DHT22;50657;48.830;2.282;2022-09-09T01:01:27;26.00;47.80
47354;DHT22;50657;48.830;2.282;2022-09-09T01:03:55;26.00;47.70
47354;DHT22;50657;48.830;2.282;2022-09-09T01:06:30;26.00;47.80
47354;DHT22;50657;48.830;2.282;2022-09-09T01:09:05;26.00;47.90
47354;DHT22;50657;48.830;2.282;2022-09-09T01:11:42;26.00;47.90
47354;DHT22;50657;48.830;2.282;2022-09-09T01:14:22;26.00;47.90
47354;DHT22;50657;48.830;2.282;2022-09-09T01:16:54;26.00;47.80
47354;DHT22;50657;48.830;2.282;2022-09-09T01:19:33;25.90;47.80
47354;DHT22;50657;48.830;2.282;2022-09-09T01:22:08;26.00;47.90
47354;DHT22;50657;48.830;2.282;2022-09-09T01:24:42;25.90;47.80
47354;DHT22;50657;48.830;2.282;2022-09-09T01:27:21;25.90;47.90
47354;DHT22;50657;48.830;2.282;2022-09-09T01:29:50;25.90;48.50
47354;DHT22;50657;48.830;2.282;2022-09-09T01:32:41;25.90;47.90
47354;DHT22;50657;48.830;2.282;2022-09-09T01:35:15;26.00;47.90
47354;DHT22;50657;48.830;2.282;2022-09-09T01:37:46;25.90;47.90
47354;DHT22;50657;48.830;2.282;2022-09-09T01:40:13;25.90;47.90
47354;DHT22;50657;48.830;2.282;2022-09-09T01:42:42;25.90;47.80
47354;DHT22;50657;48.830;2.282;2022-09-09T01:45:09;25.90;47.80
47354;DHT22;50657;48.830;2.282;2022-09-09T01:47:36;25.90;47.90
47354;DHT22;50657;48.830;2.282;2022-09-09T01:50:17;25.90;47.80
47354;DHT22;50657;48.830;2.282;2022-09-09T01:52:47;25.90;47.70
47354;DHT22;50657;48.830;2.282;2022-09-09T01:55:23;25.90;47.70
47354;DHT22;50657;48.830;2.282;2022-09-09T01:59:01;25.90;47.60
47354;DHT22;50657;48.830;2.282;2022-09-09T02:01:44;25.90;47.60
47354;DHT22;50657;48.830;2.282;2022-09-09T02:04:24;25.90;47.60
47354;DHT22;50657;48.830;2.282;2022-09-09T02:06:56;25.90;47.60
47354;DHT22;50657;48.830;2.282;2022-09-09T02:09:29;25.80;47.50
47354;DHT22;50657;48.830;2.282;2022-09-09T02:12:03;25.90;47.50
47354;DHT22;50657;48.830;2.282;2022-09-09T02:14:43;25.90;47.50
47354;DHT22;50657;48.830;2.282;2022-09-09T02:17:16;25.90;47.60
47354;DHT22;50657;48.830;2.282;2022-09-09T02:20:14;25.90;47.60
47354;DHT22;50657;48.830;2.282;2022-09-09T02:22:57;25.80;47.50
47354;DHT22;50657;48.830;2.282;2022-09-09T02:25:28;25.80;47.50
47354;DHT22;50657;48.830;2.282;2022-09-09T02:28:05;25.90;47.60
47354;DHT22;50657;48.830;2.282;2022-09-09T02:30:35;25.80;47.50
47354;DHT22;50657;48.830;2.282;2022-09-09T02:33:05;25.90;47.60
47354;DHT22;50657;48.830;2.282;2022-09-09T02:35:48;25.80;47.60
47354;DHT22;50657;48.830;2.282;2022-09-09T02:38:20;25.90;47.80
47354;DHT22;50657;48.830;2.282;2022-09-09T02:40:56;25.80;48.40
47354;DHT22;50657;48.830;2.282;2022-09-09T02:43:24;25.80;47.80
47354;DHT22;50657;48.830;2.282;2022-09-09T02:46:00;25.80;47.80
47354;DHT22;50657;48.830;2.282;2022-09-09T02:48:34;25.80;47.80
47354;DHT22;50657;48.830;2.282;2022-09-09T02:51:09;25.80;47.80
47354;DHT22;50657;48.830;2.282;2022-09-09T02:53:43;25.80;47.80
47354;DHT22;50657;48.830;2.282;2022-09-09T02:56:15;25.80;47.80
47354;DHT22;50657;48.830;2.282;2022-09-09T02:58:47;25.80;47.80
47354;DHT22;50657;48.830;2.282;2022-09-09T03:01:16;25.80;47.80
47354;DHT22;50657;48.830;2.282;2022-09-09T03:03:44;25.80;47.80
47354;DHT22;50657;48.830;2.282;2022-09-09T03:06:15;25.80;47.80
47354;DHT22;50657;48.830;2.282;2022-09-09T03:08:46;25.80;47.80
47354;DHT22;50657;48.830;2.282;2022-09-09T03:11:18;25.80;47.80
47354;DHT22;50657;48.830;2.282;2022-09-09T03:13:45;25.80;47.70
47354;DHT22;50657;48.830;2.282;2022-09-09T03:16:13;25.80;47.70
47354;DHT22;50657;48.830;2.282;2022-09-09T03:18:45;25.80;47.70
47354;DHT22;50657;48.830;2.282;2022-09-09T03:21:12;25.80;47.60
47354;DHT22;50657;48.830;2.282;2022-09-09T03:23:41;25.80;47.70
47354;DHT22;50657;48.830;2.282;2022-09-09T03:26:08;25.80;47.60
47354;DHT22;50657;48.830;2.282;2022-09-09T03:28:41;25.80;47.60
47354;DHT22;50657;48.830;2.282;2022-09-09T03:31:10;25.80;47.60
47354;DHT22;50657;48.830;2.282;2022-09-09T03:33:42;25.80;47.50
47354;DHT22;50657;48.830;2.282;2022-09-09T03:36:13;25.80;47.50
47354;DHT22;50657;48.830;2.282;2022-09-09T03:38:41;25.80;47.50
47354;DHT22;50657;48.830;2.282;2022-09-09T03:41:08;25.80;47.50
47354;DHT22;50657;48.830;2.282;2022-09-09T03:43:35;25.80;47.50
47354;DHT22;50657;48.830;2.282;2022-09-09T03:46:03;25.80;47.50
47354;DHT22;50657;48.830;2.282;2022-09-09T03:48:31;25.80;47.60
47354;DHT22;50657;48.830;2.282;2022-09-09T03:50:59;25.80;47.60
47354;DHT22;50657;48.830;2.282;2022-09-09T03:53:29;25.80;47.60
47354;DHT22;50657;48.830;2.282;2022-09-09T03:55:57;25.80;47.60
47354;DHT22;50657;48.830;2.282;2022-09-09T03:58:26;25.80;47.60
47354;DHT22;50657;48.830;2.282;2022-09-09T04:01:00;25.80;47.60
47354;DHT22;50657;48.830;2.282;2022-09-09T04:03:29;25.70;47.60
47354;DHT22;50657;48.830;2.282;2022-09-09T04:05:58;25.70;47.60
47354;DHT22;50657;48.830;2.282;2022-09-09T04:08:29;25.70;47.70
47354;DHT22;50657;48.830;2.282;2022-09-09T04:10:58;25.80;47.70
47354;DHT22;50657;48.830;2.282;2022-09-09T04:13:28;25.70;48.20
47354;DHT22;50657;48.830;2.282;2022-09-09T04:15:58;25.70;47.60
47354;DHT22;50657;48.830;2.282;2022-09-09T04:18:26;25.70;47.70
47354;DHT22;50657;48.830;2.282;2022-09-09T04:20:54;25.70;48.20
47354;DHT22;50657;48.830;2.282;2022-09-09T04:23:25;25.80;47.70
47354;DHT22;50657;48.830;2.282;2022-09-09T04:25:56;25.80;47.70
47354;DHT22;50657;48.830;2.282;2022-09-09T04:28:25;25.80;47.60
47354;DHT22;50657;48.830;2.282;2022-09-09T04:30:53;25.70;47.60
47354;DHT22;50657;48.830;2.282;2022-09-09T04:33:21;25.70;47.60
47354;DHT22;50657;48.830;2.282;2022-09-09T04:35:50;25.70;48.20
47354;DHT22;50657;48.830;2.282;2022-09-09T04:38:20;25.70;47.60
47354;DHT22;50657;48.830;2.282;2022-09-09T04:40:50;25.70;47.60
47354;DHT22;50657;48.830;2.282;2022-09-09T04:43:21;25.70;47.60
47354;DHT22;50657;48.830;2.282;2022-09-09T04:45:51;25.70;47.70
47354;DHT22;50657;48.830;2.282;2022-09-09T04:48:21;25.70;47.70
47354;DHT22;50657;48.830;2.282;2022-09-09T04:50:56;25.70;47.70
47354;DHT22;50657;48.830;2.282;2022-09-09T04:53:24;25.70;47.60
47354;DHT22;50657;48.830;2.282;2022-09-09T04:55:52;25.70;47.70
47354;DHT22;50657;48.830;2.282;2022-09-09T04:58:22;25.70;47.60
47354;DHT22;50657;48.830;2.282;2022-09-09T05:00:49;25.70;47.70
47354;DHT22;50657;48.830;2.282;2022-09-09T05:03:17;25.70;47.70
47354;DHT22;50657;48.830;2.282;2022-09-09T05:05:45;25.70;48.30
47354;DHT22;50657;48.830;2.282;2022-09-09T05:08:13;25.70;47.70
47354;DHT22;50657;48.830;2.282;2022-09-09T05:10:41;25.60;47.70
47354;DHT22;50657;48.830;2.282;2022-09-09T05:13:08;25.60;48.30
47354;DHT22;50657;48.830;2.282;2022-09-09T05:15:37;25.60;47.80
47354;DHT22;50657;48.830;2.282;2022-09-09T05:18:04;25.60;47.80
47354;DHT22;50657;48.830;2.282;2022-09-09T05:20:32;25.60;47.90
47354;DHT22;50657;48.830;2.282;2022-09-09T05:23:00;25.60;47.90
47354;DHT22;50657;48.830;2.282;2022-09-09T05:25:30;25.60;47.90
47354;DHT22;50657;48.830;2.282;2022-09-09T05:27:58;25.60;47.90
47354;DHT22;50657;48.830;2.282;2022-09-09T05:30:27;25.60;47.90
47354;DHT22;50657;48.830;2.282;2022-09-09T05:32:57;25.60;48.00
47354;DHT22;50657;48.830;2.282;2022-09-09T05:35:24;25.60;48.00
47354;DHT22;50657;48.830;2.282;2022-09-09T05:37:51;25.60;48.00
47354;DHT22;50657;48.830;2.282;2022-09-09T05:40:18;25.60;48.00
47354;DHT22;50657;48.830;2.282;2022-09-09T05:42:47;25.50;48.00
47354;DHT22;50657;48.830;2.282;2022-09-09T05:45:14;25.50;48.00
47354;DHT22;50657;48.830;2.282;2022-09-09T05:47:41;25.50;48.10
47354;DHT22;50657;48.830;2.282;2022-09-09T05:50:12;25.50;48.10
47354;DHT22;50657;48.830;2.282;2022-09-09T05:52:40;25.60;48.20
47354;DHT22;50657;48.830;2.282;2022-09-09T05:55:08;25.60;48.10
47354;DHT22;50657;48.830;2.282;2022-09-09T05:57:35;25.50;48.10
47354;DHT22;50657;48.830;2.282;2022-09-09T06:00:03;25.60;48.10
47354;DHT22;50657;48.830;2.282;2022-09-09T06:02:39;25.60;48.10
47354;DHT22;50657;48.830;2.282;2022-09-09T06:05:09;25.50;48.10
47354;DHT22;50657;48.830;2.282;2022-09-09T06:07:38;25.50;48.00
47354;DHT22;50657;48.830;2.282;2022-09-09T06:10:08;25.50;48.20
47354;DHT22;50657;48.830;2.282;2022-09-09T06:12:36;25.50;48.50
47354;DHT22;50657;48.830;2.282;2022-09-09T06:15:04;25.40;48.80
47354;DHT22;50657;48.830;2.282;2022-09-09T06:17:31;25.50;49.10
47354;DHT22;50657;48.830;2.282;2022-09-09T06:19:58;25.50;49.30
47354;DHT22;50657;48.830;2.282;2022-09-09T06:22:25;25.50;49.40
47354;DHT22;50657;48.830;2.282;2022-09-09T06:24:54;25.50;49.40
47354;DHT22;50657;48.830;2.282;2022-09-09T06:27:21;25.60;49.60
47354;DHT22;50657;48.830;2.282;2022-09-09T06:29:48;25.60;49.50
47354;DHT22;50657;48.830;2.282;2022-09-09T06:32:16;25.70;49.50
47354;DHT22;50657;48.830;2.282;2022-09-09T06:34:44;25.70;49.30
47354;DHT22;50657;48.830;2.282;2022-09-09T06:37:11;25.80;49.20
47354;DHT22;50657;48.830;2.282;2022-09-09T06:39:44;25.90;49.10
47354;DHT22;50657;48.830;2.282;2022-09-09T06:42:13;26.00;49.10
47354;DHT22;50657;48.830;2.282;2022-09-09T06:44:57;26.10;48.90
47354;DHT22;50657;48.830;2.282;2022-09-09T06:47:33;26.10;48.70
47354;DHT22;50657;48.830;2.282;2022-09-09T06:50:00;26.20;48.70
47354;DHT22;50657;48.830;2.282;2022-09-09T06:52:29;26.10;48.40
47354;DHT22;50657;48.830;2.282;2022-09-09T06:54:58;26.20;48.30
47354;DHT22;50657;48.830;2.282;2022-09-09T06:57:27;26.30;48.20
47354;DHT22;50657;48.830;2.282;2022-09-09T06:59:54;26.30;48.00
47354;DHT22;50657;48.830;2.282;2022-09-09T07:02:21;26.30;48.00
47354;DHT22;50657;48.830;2.282;2022-09-09T07:04:48;26.30;47.90
47354;DHT22;50657;48.830;2.282;2022-09-09T07:07:16;26.30;47.90
47354;DHT22;50657;48.830;2.282;2022-09-09T07:09:44;26.30;47.80
47354;DHT22;50657;48.830;2.282;2022-09-09T07:12:12;26.30;47.80
47354;DHT22;50657;48.830;2.282;2022-09-09T07:14:48;26.40;47.80
47354;DHT22;50657;48.830;2.282;2022-09-09T07:17:15;26.40;47.70
47354;DHT22;50657;48.830;2.282;2022-09-09T07:19:42;26.50;47.70
47354;DHT22;50657;48.830;2.282;2022-09-09T07:22:09;26.50;47.60
47354;DHT22;50657;48.830;2.282;2022-09-09T07:24:36;26.50;47.60
47354;DHT22;50657;48.830;2.282;2022-09-09T07:27:04;26.60;47.50
47354;DHT22;50657;48.830;2.282;2022-09-09T07:29:31;26.60;47.40
47354;DHT22;50657;48.830;2.282;2022-09-09T07:32:00;26.60;47.30
47354;DHT22;50657;48.830;2.282;2022-09-09T07:34:32;26.70;47.30
47354;DHT22;50657;48.830;2.282;2022-09-09T07:36:59;26.70;47.20
47354;DHT22;50657;48.830;2.282;2022-09-09T07:39:28;26.70;47.10
47354;DHT22;50657;48.830;2.282;2022-09-09T07:41:55;26.70;47.00
47354;DHT22;50657;48.830;2.282;2022-09-09T07:44:24;26.80;47.00
47354;DHT22;50657;48.830;2.282;2022-09-09T07:47:00;26.80;47.00
47354;DHT22;50657;48.830;2.282;2022-09-09T07:49:33;26.90;47.00
47354;DHT22;50657;48.830;2.282;2022-09-09T07:52:02;26.90;47.00
47354;DHT22;50657;48.830;2.282;2022-09-09T07:54:30;26.90;46.90
47354;DHT22;50657;48.830;2.282;2022-09-09T07:57:00;27.00;46.90
47354;DHT22;50657;48.830;2.282;2022-09-09T07:59:30;27.00;46.90
47354;DHT22;50657;48.830;2.282;2022-09-09T08:01:59;27.10;47.00
47354;DHT22;50657;48.830;2.282;2022-09-09T08:04:28;27.10;47.00
47354;DHT22;50657;48.830;2.282;2022-09-09T08:06:58;27.10;47.00
47354;DHT22;50657;48.830;2.282;2022-09-09T08:09:27;27.10;47.00
47354;DHT22;50657;48.830;2.282;2022-09-09T08:11:59;27.20;47.10
47354;DHT22;50657;48.830;2.282;2022-09-09T08:14:28;27.20;47.00
47354;DHT22;50657;48.830;2.282;2022-09-09T08:16:57;27.20;46.90
47354;DHT22;50657;48.830;2.282;2022-09-09T08:19:28;27.30;46.90
47354;DHT22;50657;48.830;2.282;2022-09-09T08:21:58;27.20;46.70
47354;DHT22;50657;48.830;2.282;2022-09-09T08:24:25;27.30;46.80
47354;DHT22;50657;48.830;2.282;2022-09-09T08:26:52;27.30;46.70
47354;DHT22;50657;48.830;2.282;2022-09-09T08:29:23;27.30;46.60
47354;DHT22;50657;48.830;2.282;2022-09-09T08:31:52;27.40;46.60
47354;DHT22;50657;48.830;2.282;2022-09-09T08:34:21;27.50;46.50
47354;DHT22;50657;48.830;2.282;2022-09-09T08:36:51;27.50;46.40
47354;DHT22;50657;48.830;2.282;2022-09-09T08:39:23;27.60;46.30
47354;DHT22;50657;48.830;2.282;2022-09-09T08:42:21;27.60;46.20
47354;DHT22;50657;48.830;2.282;2022-09-09T08:48:01;27.70;46.10
47354;DHT22;50657;48.830;2.282;2022-09-09T08:50:32;27.80;46.00
47354;DHT22;50657;48.830;2.282;2022-09-09T08:53:15;27.80;45.90
47354;DHT22;50657;48.830;2.282;2022-09-09T08:55:46;27.80;45.90
47354;DHT22;50657;48.830;2.282;2022-09-09T08:58:17;27.80;45.90
47354;DHT22;50657;48.830;2.282;2022-09-09T09:01:02;27.80;46.00
47354;DHT22;50657;48.830;2.282;2022-09-09T09:03:48;27.90;45.90
47354;DHT22;50657;48.830;2.282;2022-09-09T09:06:29;27.80;45.70
47354;DHT22;50657;48.830;2.282;2022-09-09T09:09:08;27.90;45.70
47354;DHT22;50657;48.830;2.282;2022-09-09T09:11:40;27.90;45.70
47354;DHT22;50657;48.830;2.282;2022-09-09T09:14:15;27.90;45.70
47354;DHT22;50657;48.830;2.282;2022-09-09T09:16:51;27.90;45.70
47354;DHT22;50657;48.830;2.282;2022-09-09T09:19:20;28.00;45.80
47354;DHT22;50657;48.830;2.282;2022-09-09T09:21:54;28.10;45.90
47354;DHT22;50657;48.830;2.282;2022-09-09T09:24:27;28.10;45.80
47354;DHT22;50657;48.830;2.282;2022-09-09T09:27:00;28.10;45.70
47354;DHT22;50657;48.830;2.282;2022-09-09T09:29:34;28.10;45.50
47354;DHT22;50657;48.830;2.282;2022-09-09T09:32:02;28.20;45.60
47354;DHT22;50657;48.830;2.282;2022-09-09T09:34:30;28.20;45.60
47354;DHT22;50657;48.830;2.282;2022-09-09T09:36:59;28.20;45.50
47354;DHT22;50657;48.830;2.282;2022-09-09T09:39:32;28.20;45.50
47354;DHT22;50657;48.830;2.282;2022-09-09T09:42:09;28.20;45.40
47354;DHT22;50657;48.830;2.282;2022-09-09T09:44:37;28.20;45.30
47354;DHT22;50657;48.830;2.282;2022-09-09T09:47:13;28.20;45.20
47354;DHT22;50657;48.830;2.282;2022-09-09T09:49:54;28.20;45.00
47354;DHT22;50657;48.830;2.282;2022-09-09T09:52:24;28.20;44.70
47354;DHT22;50657;48.830;2.282;2022-09-09T09:54:53;28.10;44.60
47354;DHT22;50657;48.830;2.282;2022-09-09T09:57:26;28.10;44.60
47354;DHT22;50657;48.830;2.282;2022-09-09T10:00:04;28.00;44.50
47354;DHT22;50657;48.830;2.282;2022-09-09T10:02:42;27.90;44.50
47354;DHT22;50657;48.830;2.282;2022-09-09T10:05:17;27.80;44.50
47354;DHT22;50657;48.830;2.282;2022-09-09T10:08:01;27.80;44.40
47354;DHT22;50657;48.830;2.282;2022-09-09T10:10:42;27.80;44.40
47354;DHT22;50657;48.830;2.282;2022-09-09T10:13:20;27.70;44.30
47354;DHT22;50657;48.830;2.282;2022-09-09T10:16:02;27.70;44.30
47354;DHT22;50657;48.830;2.282;2022-09-09T10:18:44;27.60;44.20
47354;DHT22;50657;48.830;2.282;2022-09-09T10:21:21;27.60;44.20
47354;DHT22;50657;48.830;2.282;2022-09-09T10:26:48;27.60;45.40
47354;DHT22;50657;48.830;2.282;2022-09-09T10:29:40;27.60;45.10
47354;DHT22;50657;48.830;2.282;2022-09-09T10:32:33;27.60;45.10
47354;DHT22;50657;48.830;2.282;2022-09-09T10:35:09;27.70;45.10
47354;DHT22;50657;48.830;2.282;2022-09-09T10:37:46;27.70;45.10
47354;DHT22;50657;48.830;2.282;2022-09-09T10:40:28;27.70;45.10
47354;DHT22;50657;48.830;2.282;2022-09-09T10:43:07;27.80;45.10
47354;DHT22;50657;48.830;2.282;2022-09-09T10:45:45;27.80;45.10
47354;DHT22;50657;48.830;2.282;2022-09-09T10:48:28;27.90;45.10
47354;DHT22;50657;48.830;2.282;2022-09-09T10:51:05;27.90;44.90
47354;DHT22;50657;48.830;2.282;2022-09-09T10:53:42;28.00;44.90
47354;DHT22;50657;48.830;2.282;2022-09-09T10:56:15;28.10;45.40
47354;DHT22;50657;48.830;2.282;2022-09-09T10:58:47;28.10;44.50
47354;DHT22;50657;48.830;2.282;2022-09-09T11:01:20;28.20;44.40
47354;DHT22;50657;48.830;2.282;2022-09-09T11:03:53;28.30;44.40
47354;DHT22;50657;48.830;2.282;2022-09-09T11:06:28;28.30;45.20
47354;DHT22;50657;48.830;2.282;2022-09-09T11:08:57;28.30;44.50
47354;DHT22;50657;48.830;2.282;2022-09-09T11:11:30;28.40;44.50
47354;DHT22;50657;48.830;2.282;2022-09-09T11:14:03;28.40;45.00
47354;DHT22;50657;48.830;2.282;2022-09-09T11:16:35;28.60;44.30
47354;DHT22;50657;48.830;2.282;2022-09-09T11:19:14;28.70;44.20
47354;DHT22;50657;48.830;2.282;2022-09-09T11:21:46;28.70;44.60
47354;DHT22;50657;48.830;2.282;2022-09-09T11:24:18;28.80;43.90
47354;DHT22;50657;48.830;2.282;2022-09-09T11:26:52;28.90;43.70
47354;DHT22;50657;48.830;2.282;2022-09-09T11:29:41;28.90;43.30
47354;DHT22;50657;48.830;2.282;2022-09-09T11:32:25;29.20;43.10
47354;DHT22;50657;48.830;2.282;2022-09-09T11:35:01;29.20;43.00
47354;DHT22;50657;48.830;2.282;2022-09-09T11:37:53;29.30;42.90
47354;DHT22;50657;48.830;2.282;2022-09-09T11:40:23;29.40;42.30
47354;DHT22;50657;48.830;2.282;2022-09-09T11:43:01;29.50;42.40
47354;DHT22;50657;48.830;2.282;2022-09-09T11:45:33;29.60;42.50
47354;DHT22;50657;48.830;2.282;2022-09-09T11:48:03;29.50;42.50
47354;DHT22;50657;48.830;2.282;2022-09-09T11:50:33;29.60;42.40
47354;DHT22;50657;48.830;2.282;2022-09-09T11:53:19;29.60;42.20
47354;DHT22;50657;48.830;2.282;2022-09-09T11:56:07;29.60;42.00
47354;DHT22;50657;48.830;2.282;2022-09-09T11:58:41;29.70;42.00
47354;DHT22;50657;48.830;2.282;2022-09-09T12:01:29;29.70;42.10
47354;DHT22;50657;48.830;2.282;2022-09-09T12:06:50;30.10;42.10
47354;DHT22;50657;48.830;2.282;2022-09-09T12:09:27;30.20;41.70
47354;DHT22;50657;48.830;2.282;2022-09-09T12:12:06;30.40;41.50
47354;DHT22;50657;48.830;2.282;2022-09-09T12:14:43;30.40;41.30
47354;DHT22;50657;48.830;2.282;2022-09-09T12:17:19;30.50;41.20
47354;DHT22;50657;48.830;2.282;2022-09-09T12:19:47;30.50;41.00
47354;DHT22;50657;48.830;2.282;2022-09-09T12:22:23;30.40;41.00
47354;DHT22;50657;48.830;2.282;2022-09-09T12:24:57;30.40;41.10
47354;DHT22;50657;48.830;2.282;2022-09-09T12:27:31;30.20;41.10
47354;DHT22;50657;48.830;2.282;2022-09-09T12:30:04;30.10;41.30
47354;DHT22;50657;48.830;2.282;2022-09-09T12:32:36;30.10;41.60
47354;DHT22;50657;48.830;2.282;2022-09-09T12:35:09;30.00;41.70
47354;DHT22;50657;48.830;2.282;2022-09-09T12:37:38;30.00;41.90
47354;DHT22;50657;48.830;2.282;2022-09-09T12:40:19;29.90;42.00
47354;DHT22;50657;48.830;2.282;2022-09-09T12:42:47;29.90;42.10
47354;DHT22;50657;48.830;2.282;2022-09-09T12:45:18;29.80;42.20
47354;DHT22;50657;48.830;2.282;2022-09-09T12:47:51;29.70;42.30
47354;DHT22;50657;48.830;2.282;2022-09-09T12:50:22;29.60;42.40
47354;DHT22;50657;48.830;2.282;2022-09-09T12:52:52;29.50;42.50
47354;DHT22;50657;48.830;2.282;2022-09-09T12:55:21;29.50;42.70
47354;DHT22;50657;48.830;2.282;2022-09-09T12:57:51;29.30;42.70
47354;DHT22;50657;48.830;2.282;2022-09-09T13:00:20;29.30;42.90
47354;DHT22;50657;48.830;2.282;2022-09-09T13:02:52;29.20;43.10
47354;DHT22;50657;48.830;2.282;2022-09-09T13:05:23;29.20;43.30
47354;DHT22;50657;48.830;2.282;2022-09-09T13:07:51;29.10;43.50
47354;DHT22;50657;48.830;2.282;2022-09-09T13:10:24;29.00;43.60
47354;DHT22;50657;48.830;2.282;2022-09-09T13:12:53;29.00;43.80
47354;DHT22;50657;48.830;2.282;2022-09-09T13:15:22;28.90;44.00
47354;DHT22;50657;48.830;2.282;2022-09-09T13:17:53;28.80;44.10
47354;DHT22;50657;48.830;2.282;2022-09-09T13:20:22;28.80;44.30
47354;DHT22;50657;48.830;2.282;2022-09-09T13:22:51;28.70;44.50
47354;DHT22;50657;48.830;2.282;2022-09-09T13:25:23;28.60;44.70
47354;DHT22;50657;48.830;2.282;2022-09-09T13:27:57;28.50;44.80
47354;DHT22;50657;48.830;2.282;2022-09-09T13:30:27;28.50;45.10
47354;DHT22;50657;48.830;2.282;2022-09-09T13:33:20;28.40;45.20
47354;DHT22;50657;48.830;2.282;2022-09-09T13:35:51;28.40;45.20
47354;DHT22;50657;48.830;2.282;2022-09-09T13:38:20;28.30;45.40
47354;DHT22;50657;48.830;2.282;2022-09-09T13:40:55;28.30;45.60
47354;DHT22;50657;48.830;2.282;2022-09-09T13:43:24;28.30;45.70
47354;DHT22;50657;48.830;2.282;2022-09-09T13:45:56;28.30;45.80
47354;DHT22;50657;48.830;2.282;2022-09-09T13:48:25;28.20;45.90
47354;DHT22;50657;48.830;2.282;2022-09-09T13:50:56;28.30;46.10
47354;DHT22;50657;48.830;2.282;2022-09-09T13:53:24;28.30;46.10
47354;DHT22;50657;48.830;2.282;2022-09-09T13:55:51;28.30;46.10
47354;DHT22;50657;48.830;2.282;2022-09-09T13:58:19;28.30;46.20
47354;DHT22;50657;48.830;2.282;2022-09-09T14:00:47;28.30;46.20
47354;DHT22;50657;48.830;2.282;2022-09-09T14:03:15;28.20;46.40
47354;DHT22;50657;48.830;2.282;2022-09-09T14:05:44;28.20;46.60
47354;DHT22;50657;48.830;2.282;2022-09-09T14:08:18;28.20;46.90
47354;DHT22;50657;48.830;2.282;2022-09-09T14:10:47;28.30;47.10
47354;DHT22;50657;48.830;2.282;2022-09-09T14:13:14;28.30;47.00
47354;DHT22;50657;48.830;2.282;2022-09-09T14:15:41;28.40;46.90
47354;DHT22;50657;48.830;2.282;2022-09-09T14:18:11;28.50;46.80
47354;DHT22;50657;48.830;2.282;2022-09-09T14:20:38;28.60;46.80
47354;DHT22;50657;48.830;2.282;2022-09-09T14:23:10;28.70;46.70
47354;DHT22;50657;48.830;2.282;2022-09-09T14:25:40;28.80;46.70
47354;DHT22;50657;48.830;2.282;2022-09-09T14:28:09;28.80;46.70
47354;DHT22;50657;48.830;2.282;2022-09-09T14:30:38;28.90;46.70
47354;DHT22;50657;48.830;2.282;2022-09-09T14:33:05;28.90;46.60
47354;DHT22;50657;48.830;2.282;2022-09-09T14:35:32;29.00;46.60
47354;DHT22;50657;48.830;2.282;2022-09-09T14:38:00;29.00;46.50
47354;DHT22;50657;48.830;2.282;2022-09-09T14:40:29;29.10;46.50
47354;DHT22;50657;48.830;2.282;2022-09-09T14:42:57;29.20;46.50
47354;DHT22;50657;48.830;2.282;2022-09-09T14:45:24;29.20;46.50
47354;DHT22;50657;48.830;2.282;2022-09-09T14:47:52;29.30;46.50
47354;DHT22;50657;48.830;2.282;2022-09-09T14:50:19;29.30;46.30
47354;DHT22;50657;48.830;2.282;2022-09-09T14:52:47;29.40;46.30
47354;DHT22;50657;48.830;2.282;2022-09-09T14:55:14;29.40;46.20
47354;DHT22;50657;48.830;2.282;2022-09-09T14:57:43;29.50;46.10
47354;DHT22;50657;48.830;2.282;2022-09-09T15:00:11;29.50;46.20
47354;DHT22;50657;48.830;2.282;2022-09-09T15:02:39;29.60;46.30
47354;DHT22;50657;48.830;2.282;2022-09-09T15:05:06;29.60;46.00
47354;DHT22;50657;48.830;2.282;2022-09-09T15:07:33;29.50;45.50
47354;DHT22;50657;48.830;2.282;2022-09-09T15:10:02;29.50;45.70
47354;DHT22;50657;48.830;2.282;2022-09-09T15:12:29;29.50;45.60
47354;DHT22;50657;48.830;2.282;2022-09-09T15:14:58;29.50;45.60
47354;DHT22;50657;48.830;2.282;2022-09-09T15:17:25;29.50;45.50
47354;DHT22;50657;48.830;2.282;2022-09-09T15:19:53;29.40;45.50
47354;DHT22;50657;48.830;2.282;2022-09-09T15:22:20;29.40;45.60
47354;DHT22;50657;48.830;2.282;2022-09-09T15:24:48;29.30;45.90
47354;DHT22;50657;48.830;2.282;2022-09-09T15:27:15;29.30;45.90
47354;DHT22;50657;48.830;2.282;2022-09-09T15:29:42;29.30;46.30
47354;DHT22;50657;48.830;2.282;2022-09-09T15:32:11;29.30;46.40
47354;DHT22;50657;48.830;2.282;2022-09-09T15:34:38;29.20;46.30
47354;DHT22;50657;48.830;2.282;2022-09-09T15:37:05;29.10;46.20
47354;DHT22;50657;48.830;2.282;2022-09-09T15:39:33;28.90;46.40
47354;DHT22;50657;48.830;2.282;2022-09-09T15:42:00;28.80;48.10
47354;DHT22;50657;48.830;2.282;2022-09-09T15:44:27;28.80;49.10
47354;DHT22;50657;48.830;2.282;2022-09-09T15:46:54;28.80;49.60
47354;DHT22;50657;48.830;2.282;2022-09-09T15:49:24;28.80;49.70
47354;DHT22;50657;48.830;2.282;2022-09-09T15:51:53;28.80;49.70
47354;DHT22;50657;48.830;2.282;2022-09-09T15:54:22;28.80;49.50
47354;DHT22;50657;48.830;2.282;2022-09-09T15:56:52;28.80;49.50
47354;DHT22;50657;48.830;2.282;2022-09-09T15:59:20;28.90;49.90
47354;DHT22;50657;48.830;2.282;2022-09-09T16:01:48;28.90;50.30
47354;DHT22;50657;48.830;2.282;2022-09-09T16:04:17;28.90;50.80
47354;DHT22;50657;48.830;2.282;2022-09-09T16:06:50;28.90;50.80
47354;DHT22;50657;48.830;2.282;2022-09-09T16:09:18;28.90;50.70